Time;durP1;ratioP1;P1;durP2;ratioP2;P2;SDS_P1;SDS_P2;PMS_P1;PMS_P2;Temp;Humidity;BMP_temperature;BMP_pressure;BME280_temperature;BME280_humidity;BME280_pressure;Samples;Min_cycle;Max_cycle;Signal;HPM_P1;HPM_P2
2023/04/20 00:01:41;;;;;;;;;;;;;;;7.82;85.47;100813.21;103902;280;96531;-58
2023/04/20 00:04:14;;;;;;;;;;;;;;;7.74;85.51;100810.08;103948;280;98146;-57
2023/04/20 00:06:46;;;;;;;;;;;;;;;7.71;85.66;100810.04;103940;280;120970;-57
2023/04/20 00:09:18;;;;;;;;;;;;;;;7.68;85.70;100806.09;103941;280;103489;-57
2023/04/20 00:11:50;;;;;;;;;;;;;;;7.61;85.69;100799.23;104330;280;114872;-57
2023/04/20 00:14:22;;;;;;;;;;;;;;;7.58;85.85;100805.57;104355;268;97020;-57
2023/04/20 00:16:55;;;;;;;;;;;;;;;7.55;85.80;100794.72;104375;280;97732;-55
2023/04/20 00:19:31;;;;;;;;;;;;;;;7.52;86.06;100799.56;104350;280;120989;-56
2023/04/20 00:22:04;;;;;;;;;;;;;;;7.51;86.11;100800.38;103951;280;105951;-56
2023/04/20 00:24:36;;;;;;;;;;;;;;;7.52;85.99;100798.51;103971;280;114552;-56
2023/04/20 00:27:08;;;;;;;;;;;;;;;7.52;85.90;100799.39;103946;280;96936;-56
2023/04/20 00:29:40;;;;;;;;;;;;;;;7.50;85.80;100800.83;103957;280;97989;-57
2023/04/20 00:32:12;;;;;;;;;;;;;;;7.48;85.78;100794.89;104394;280;119069;-56
2023/04/20 00:34:45;;;;;;;;;;;;;;;7.47;85.92;100797.95;103922;280;105740;-56
2023/04/20 00:37:17;;;;;;;;;;;;;;;7.49;85.81;100794.86;103947;279;114637;-58
2023/04/20 00:39:49;;;;;;;;;;;;;;;7.51;85.99;100801.02;103919;280;95903;-58
2023/04/20 00:42:21;;;;;;;;;;;;;;;7.52;86.03;100801.10;103993;280;96384;-57
2023/04/20 00:44:53;;;;;;;;;;;;;;;7.56;86.15;100797.32;104337;280;121606;-57
2023/04/20 00:47:25;;;;;;;;;;;;;;;7.61;86.11;100799.10;104373;280;105164;-57
2023/04/20 00:49:58;;;;;;;;;;;;;;;7.65;86.18;100799.55;103943;280;114139;-57
2023/04/20 00:52:30;;;;;;;;;;;;;;;7.68;86.18;100793.52;103943;280;97058;-57
2023/04/20 00:55:03;;;;;;;;;;;;;;;7.70;86.09;100797.93;103926;280;97810;-57
2023/04/20 00:57:35;;;;;;;;;;;;;;;7.78;86.22;100799.27;103865;280;119720;-56
2023/04/20 01:00:10;;;;;;;;;;;;;;;7.81;86.40;100802.20;104247;280;104096;-56
2023/04/20 01:02:42;;;;;;;;;;;;;;;7.85;86.70;100801.63;104221;280;113187;-57
2023/04/20 01:05:15;;;;;;;;;;;;;;;7.92;86.66;100801.34;103845;280;97200;-57
2023/04/20 01:07:47;;;;;;;;;;;;;;;7.95;86.66;100799.95;104199;280;95072;-57
2023/04/20 01:10:19;;;;;;;;;;;;;;;8.02;86.60;100802.13;104198;280;119974;-57
2023/04/20 01:12:51;;;;;;;;;;;;;;;8.05;86.76;100800.11;103876;280;105496;-56
2023/04/20 01:15:25;;;;;;;;;;;;;;;8.10;86.80;100801.95;103870;280;114595;-57
2023/04/20 01:17:57;;;;;;;;;;;;;;;8.16;86.71;100796.63;104166;277;97120;-57
2023/04/20 01:20:30;;;;;;;;;;;;;;;8.21;86.68;100790.17;104698;277;96163;-58
2023/04/20 01:23:02;;;;;;;;;;;;;;;8.23;86.77;100791.32;104645;266;121085;-58
2023/04/20 01:25:35;;;;;;;;;;;;;;;8.26;86.91;100792.71;104231;277;105201;-56
2023/04/20 01:28:08;;;;;;;;;;;;;;;8.29;86.81;100788.58;104012;277;488017;-56
2023/04/20 01:30:40;;;;;;;;;;;;;;;8.33;86.60;100792.15;104116;277;96143;-57
2023/04/20 01:33:13;;;;;;;;;;;;;;;8.36;86.61;100786.77;104188;277;97644;-57
2023/04/20 01:35:47;;;;;;;;;;;;;;;8.36;86.59;100789.10;104618;277;120204;-58
2023/04/20 01:38:21;;;;;;;;;;;;;;;8.37;86.70;100789.37;104214;277;105984;-57
2023/04/20 01:40:55;;;;;;;;;;;;;;;8.43;86.57;100791.73;104162;277;112083;-57
2023/04/20 01:43:28;;;;;;;;;;;;;;;8.49;86.69;100788.61;104218;277;96177;-56
2023/04/20 01:46:01;;;;;;;;;;;;;;;8.52;86.49;100786.96;104210;277;97002;-56
2023/04/20 01:48:33;;;;;;;;;;;;;;;8.53;86.45;100788.08;104254;277;119955;-56
2023/04/20 01:51:07;;;;;;;;;;;;;;;8.58;86.42;100788.02;104338;276;108263;-56
2023/04/20 01:53:39;;;;;;;;;;;;;;;8.59;86.39;100786.91;104305;276;112078;-58
2023/04/20 01:56:11;;;;;;;;;;;;;;;8.59;86.42;100787.51;104200;277;96852;-58
2023/04/20 01:58:44;;;;;;;;;;;;;;;8.58;86.39;100784.34;104119;277;97080;-57
2023/04/20 02:01:16;;;;;;;;;;;;;;;8.58;86.17;100785.59;104525;277;120526;-58
2023/04/20 02:03:50;;;;;;;;;;;;;;;8.55;86.33;100786.66;104090;277;104462;-56
2023/04/20 02:06:22;;;;;;;;;;;;;;;8.52;86.28;100787.77;104085;278;114659;-56
2023/04/20 02:08:54;;;;;;;;;;;;;;;8.49;86.32;100784.10;104132;277;93311;-58
2023/04/20 02:11:27;;;;;;;;;;;;;;;8.49;86.30;100786.59;104653;277;96365;-59
2023/04/20 02:13:59;;;;;;;;;;;;;;;8.46;86.20;100789.24;104681;277;119398;-57
2023/04/20 02:16:31;;;;;;;;;;;;;;;8.44;86.25;100787.89;104282;277;105127;-57
2023/04/20 02:19:03;;;;;;;;;;;;;;;8.40;86.33;100793.01;104686;277;115193;-56
2023/04/20 02:21:35;;;;;;;;;;;;;;;8.38;86.27;100793.23;104260;277;97500;-56
2023/04/20 02:24:09;;;;;;;;;;;;;;;8.40;86.20;100799.23;104267;277;98293;-58
2023/04/20 02:26:41;;;;;;;;;;;;;;;8.44;86.29;100799.95;103999;277;120365;-58
2023/04/20 02:29:13;;;;;;;;;;;;;;;8.47;86.42;100798.10;104270;277;105262;-57
2023/04/20 02:31:45;;;;;;;;;;;;;;;8.51;86.31;100796.05;104258;277;114899;-57
2023/04/20 02:34:18;;;;;;;;;;;;;;;8.55;86.22;100791.88;104237;277;96215;-56
2023/04/20 02:37:08;;;;;;;;;;;;;;;8.61;86.27;100793.94;104250;277;98130;-56
2023/04/20 02:39:40;;;;;;;;;;;;;;;8.65;86.11;100802.09;104217;277;121058;-57
2023/04/20 02:42:12;;;;;;;;;;;;;;;8.69;86.23;100802.47;104258;277;105805;-56
2023/04/20 02:44:44;;;;;;;;;;;;;;;8.71;86.12;100796.88;104243;277;113514;-56
2023/04/20 02:47:16;;;;;;;;;;;;;;;8.75;86.09;100797.39;104270;277;94883;-58
2023/04/20 02:49:48;;;;;;;;;;;;;;;8.79;85.95;100794.80;104710;277;95496;-58
2023/04/20 02:52:20;;;;;;;;;;;;;;;8.80;85.93;100793.38;104689;277;119043;-57
2023/04/20 03:01:23;;;;;;;;;;;;;;;8.89;85.53;100794.56;104217;276;91997;-57
2023/04/20 03:03:55;;;;;;;;;;;;;;;8.86;85.38;100797.36;104405;275;97714;-57
2023/04/20 03:06:27;;;;;;;;;;;;;;;8.82;85.46;100800.71;104411;275;120462;-56
2023/04/20 03:09:02;;;;;;;;;;;;;;;8.81;85.31;100798.46;104429;275;106432;-58
2023/04/20 03:11:35;;;;;;;;;;;;;;;8.77;85.34;100800.20;103924;279;115481;-58
2023/04/20 03:14:08;;;;;;;;;;;;;;;8.72;85.33;100800.77;103962;280;95935;-57
2023/04/20 03:16:41;;;;;;;;;;;;;;;8.69;85.24;100799.48;104358;280;96262;-57
2023/04/20 03:19:13;;;;;;;;;;;;;;;8.65;85.29;100801.48;103951;280;120403;-58
2023/04/20 03:21:46;;;;;;;;;;;;;;;8.62;85.26;100805.79;103924;280;104401;-58
2023/04/20 03:24:19;;;;;;;;;;;;;;;8.60;85.26;100802.42;103780;270;112994;-57
2023/04/20 03:26:52;;;;;;;;;;;;;;;8.60;85.23;100802.98;103926;280;94696;-57
2023/04/20 03:29:24;;;;;;;;;;;;;;;8.60;85.28;100801.02;103954;280;95386;-57
2023/04/20 03:31:56;;;;;;;;;;;;;;;8.61;85.25;100803.46;103950;280;121292;-56
2023/04/20 03:37:55;;;;;;;;;;;;;;;8.65;85.38;100805.33;104006;275;113544;-57
2023/04/20 03:43:47;;;;;;;;;;;;;;;8.64;85.46;100805.26;104278;276;97285;-57
2023/04/20 03:46:19;;;;;;;;;;;;;;;8.63;85.71;100808.59;104308;277;120887;-55
2023/04/20 03:48:52;;;;;;;;;;;;;;;8.63;85.55;100804.95;104739;277;106118;-55
2023/04/20 03:51:24;;;;;;;;;;;;;;;8.62;85.64;100806.88;104050;279;115187;-55
2023/04/20 03:53:56;;;;;;;;;;;;;;;8.61;85.58;100811.85;104266;277;96516;-55
2023/04/20 03:56:27;;;;;;;;;;;;;;;8.62;85.52;100814.44;104322;277;97644;-56
2023/04/20 03:59:02;;;;;;;;;;;;;;;8.62;85.35;100817.71;104027;278;122282;-56
2023/04/20 04:01:36;;;;;;;;;;;;;;;8.64;85.47;100818.17;104073;279;104326;-58
2023/04/20 04:04:09;;;;;;;;;;;;;;;8.62;85.39;100818.79;104070;278;114629;-57
2023/04/20 04:06:46;;;;;;;;;;;;;;;8.62;85.31;100819.27;104072;278;94500;-58
2023/04/20 04:09:18;;;;;;;;;;;;;;;8.59;85.42;100822.62;104076;278;95860;-57
2023/04/20 04:11:50;;;;;;;;;;;;;;;8.58;85.24;100827.83;104441;279;119371;-57
2023/04/20 04:14:38;;;;;;;;;;;;;;;8.52;85.35;100825.73;104482;278;103565;-57
2023/04/20 04:17:17;;;;;;;;;;;;;;;8.55;85.31;100828.83;104083;278;114614;-56
2023/04/20 04:19:50;;;;;;;;;;;;;;;8.57;85.18;100830.46;104037;278;94436;-58
2023/04/20 04:22:22;;;;;;;;;;;;;;;8.57;85.24;100832.61;104057;279;97806;-58
2023/04/20 04:25:16;;;;;;;;;;;;;;;8.61;85.16;100834.71;104045;278;121309;-58
2023/04/20 04:27:48;;;;;;;;;;;;;;;8.63;85.19;100837.27;104067;278;106138;-58
2023/04/20 04:33:36;;;;;;;;;;;;;;;8.78;85.16;100840.66;104081;276;96066;-57
2023/04/20 04:36:10;;;;;;;;;;;;;;;8.85;85.24;100839.34;104820;276;97976;-57
2023/04/20 04:38:43;;;;;;;;;;;;;;;8.94;85.29;100845.59;104386;276;119548;-57
2023/04/20 04:41:42;;;;;;;;;;;;;;;9.04;85.37;100849.02;104806;276;105167;-57
2023/04/20 04:44:30;;;;;;;;;;;;;;;9.10;85.17;100850.63;104352;276;113434;-57
2023/04/20 04:47:04;;;;;;;;;;;;;;;9.19;85.20;100847.47;104383;276;97040;-57
2023/04/20 04:49:36;;;;;;;;;;;;;;;9.26;85.09;100847.42;104399;276;97715;-57
2023/04/20 04:52:09;;;;;;;;;;;;;;;9.34;85.08;100848.33;104784;276;120901;-57
2023/04/20 04:54:42;;;;;;;;;;;;;;;9.44;84.90;100845.55;104374;276;104872;-57
2023/04/20 04:57:14;;;;;;;;;;;;;;;9.52;84.67;100854.64;104361;276;114013;-57
2023/04/20 04:59:46;;;;;;;;;;;;;;;9.54;84.77;100858.23;104374;276;94782;-57
2023/04/20 05:02:18;;;;;;;;;;;;;;;9.59;84.69;100862.17;104812;276;97388;-57
2023/04/20 05:04:51;;;;;;;;;;;;;;;9.56;84.36;100867.78;104356;276;119029;-57
2023/04/20 05:07:23;;;;;;;;;;;;;;;9.60;84.21;100870.77;104216;277;105691;-57
2023/04/20 05:09:55;;;;;;;;;;;;;;;9.59;84.11;100871.38;104813;276;115168;-58
2023/04/20 05:12:27;;;;;;;;;;;;;;;9.63;83.93;100867.63;104343;276;93028;-58
2023/04/20 05:15:00;;;;;;;;;;;;;;;9.67;83.92;100867.41;104397;276;96601;-57
2023/04/20 05:17:32;;;;;;;;;;;;;;;9.75;83.85;100866.62;104353;276;121244;-56
2023/04/20 05:20:22;;;;;;;;;;;;;;;9.89;83.91;100862.54;104372;276;105372;-56
2023/04/20 05:22:55;;;;;;;;;;;;;;;10.16;83.78;100869.21;103881;278;114292;-56
2023/04/20 05:25:27;;;;;;;;;;;;;;;10.38;83.63;100871.30;104135;278;97086;-57
2023/04/20 05:28:05;;;;;;;;;;;;;;;10.55;83.55;100869.67;104114;278;98113;-58
2023/04/20 05:34:13;;;;;;;;;;;;;;;10.72;83.02;100879.86;104139;278;103923;-56
2023/04/20 05:36:46;;;;;;;;;;;;;;;10.81;82.62;100873.80;104720;281;115438;-56
2023/04/20 05:42:35;;;;;;;;;;;;;;;11.78;82.52;100883.41;104210;277;96134;-55
2023/04/20 05:45:09;;;;;;;;;;;;;;;12.50;82.18;100880.41;104280;277;119217;-56
2023/04/20 05:47:41;;;;;;;;;;;;;;;13.21;81.96;100873.38;104265;277;105341;-55
2023/04/20 05:50:13;;;;;;;;;;;;;;;14.16;80.54;100877.69;104717;277;113681;-56
2023/04/20 05:52:46;;;;;;;;;;;;;;;14.33;79.15;100879.95;104262;277;92879;-57
2023/04/20 05:55:19;;;;;;;;;;;;;;;14.51;78.39;100882.33;104728;277;98546;-57
2023/04/20 06:01:11;;;;;;;;;;;;;;;14.21;76.67;100886.66;104309;275;103286;-57
2023/04/20 06:03:43;;;;;;;;;;;;;;;15.16;75.42;100878.31;104830;276;114274;-57
2023/04/20 06:06:15;;;;;;;;;;;;;;;14.99;74.33;100881.44;104412;275;94666;-56
2023/04/20 06:08:47;;;;;;;;;;;;;;;14.68;73.79;100890.13;104817;276;95726;-56
2023/04/20 06:11:19;;;;;;;;;;;;;;;14.59;73.47;100895.91;104821;279;120348;-56
2023/04/20 06:13:52;;;;;;;;;;;;;;;14.54;72.95;100894.48;104433;275;105006;-57
2023/04/20 06:16:24;;;;;;;;;;;;;;;14.49;71.63;100894.12;104801;276;113662;-57
2023/04/20 06:18:57;;;;;;;;;;;;;;;15.18;71.25;100895.15;104852;275;94396;-56
2023/04/20 06:21:29;;;;;;;;;;;;;;;15.47;71.22;100894.84;104436;275;97240;-57
2023/04/20 06:24:15;;;;;;;;;;;;;;;16.98;69.59;100896.62;104826;275;120777;-58
2023/04/20 06:29:56;;;;;;;;;;;;;;;21.26;65.92;100887.48;104177;277;113762;-58
2023/04/20 06:32:29;;;;;;;;;;;;;;;22.59;64.67;100881.84;104266;277;92788;-56
2023/04/20 06:35:03;;;;;;;;;;;;;;;22.21;61.42;100884.67;104305;277;96730;-58
2023/04/20 06:37:44;;;;;;;;;;;;;;;21.23;59.65;100881.20;104318;277;121112;-57
2023/04/20 06:43:33;;;;;;;;;;;;;;;24.34;57.54;100875.69;104164;276;113757;-58
2023/04/20 06:46:06;;;;;;;;;;;;;;;25.19;56.61;100876.52;104315;276;94468;-61
2023/04/20 06:48:38;;;;;;;;;;;;;;;25.62;55.62;100867.80;104283;276;98042;-58
2023/04/20 06:51:12;;;;;;;;;;;;;;;26.05;54.36;100867.77;104043;277;119501;-57
2023/04/20 06:53:44;;;;;;;;;;;;;;;26.42;53.57;100868.66;104701;277;103962;-58
2023/04/20 06:56:17;;;;;;;;;;;;;;;26.82;51.28;100871.45;104245;277;114522;-58
2023/04/20 06:58:49;;;;;;;;;;;;;;;26.80;51.06;100872.30;104300;277;94002;-58
2023/04/20 07:04:11;;;;;;;;;;;;;;;26.45;47.16;100877.14;104447;278;120314;-57
2023/04/20 07:06:43;;;;;;;;;;;;;;;26.57;47.14;100877.54;104489;278;104479;-57
2023/04/20 07:09:15;;;;;;;;;;;;;;;26.56;45.28;100882.42;104050;278;114295;-57
2023/04/20 07:11:57;;;;;;;;;;;;;;;26.95;45.07;100879.59;104064;278;94800;-56
2023/04/20 07:14:30;;;;;;;;;;;;;;;27.64;44.31;100879.77;103958;279;97790;-56
2023/04/20 07:17:02;;;;;;;;;;;;;;;27.78;43.02;100884.73;103926;267;119190;-57
2023/04/20 07:19:34;;;;;;;;;;;;;;;28.12;43.52;100882.02;104402;275;106524;-56
2023/04/20 07:22:06;;;;;;;;;;;;;;;28.31;40.21;100877.51;104800;276;114842;-57
2023/04/20 07:24:39;;;;;;;;;;;;;;;28.28;40.62;100881.65;104829;276;94707;-56
2023/04/20 07:27:11;;;;;;;;;;;;;;;28.28;41.08;100880.72;104446;275;97996;-58
2023/04/20 07:29:43;;;;;;;;;;;;;;;28.73;41.34;100884.02;104417;276;119271;-58
2023/04/20 07:32:15;;;;;;;;;;;;;;;28.82;41.33;100884.41;104886;276;105304;-58
2023/04/20 07:34:47;;;;;;;;;;;;;;;28.48;38.49;100885.80;104398;276;113789;-58
2023/04/20 07:46:58;;;;;;;;;;;;;;;29.04;37.03;100884.27;104362;275;103215;-59
2023/04/20 07:49:31;;;;;;;;;;;;;;;29.03;37.61;100882.84;104800;275;115084;-58
2023/04/20 07:52:03;;;;;;;;;;;;;;;29.26;36.10;100881.45;104852;275;94350;-56
2023/04/20 07:54:56;;;;;;;;;;;;;;;29.68;36.92;100878.45;104442;275;97643;-56
2023/04/20 07:57:30;;;;;;;;;;;;;;;29.90;35.96;100879.44;104522;278;119580;-56
2023/04/20 08:00:03;;;;;;;;;;;;;;;29.72;35.04;100878.34;104534;277;105955;-57
2023/04/20 08:02:35;;;;;;;;;;;;;;;29.61;35.84;100874.88;104098;278;113434;-57
2023/04/20 08:05:08;;;;;;;;;;;;;;;29.86;36.20;100871.98;104023;279;96637;-57
2023/04/20 08:07:41;;;;;;;;;;;;;;;29.96;34.97;100876.16;104111;277;97225;-57
2023/04/20 08:10:13;;;;;;;;;;;;;;;29.81;33.29;100875.00;104089;277;120196;-58
2023/04/20 08:12:52;;;;;;;;;;;;;;;29.38;33.04;100878.73;104108;278;105379;-57
2023/04/20 08:15:24;;;;;;;;;;;;;;;29.09;33.51;100888.22;104076;278;115256;-57
2023/04/20 08:17:56;;;;;;;;;;;;;;;29.21;32.20;100879.51;104122;278;92612;-56
2023/04/20 08:20:28;;;;;;;;;;;;;;;28.96;30.33;100886.98;104556;278;96890;-56
2023/04/20 08:26:26;;;;;;;;;;;;;;;28.18;31.43;100884.41;104091;277;103205;-64
2023/04/20 08:28:58;;;;;;;;;;;;;;;28.56;31.39;100888.77;104120;277;113963;-65
2023/04/20 08:31:30;;;;;;;;;;;;;;;28.40;30.86;100890.23;104079;278;94630;-65
2023/04/20 08:34:03;;;;;;;;;;;;;;;28.19;30.51;100891.64;104111;277;97081;-66
2023/04/20 08:36:35;;;;;;;;;;;;;;;27.56;29.62;100896.79;104562;277;120879;-65
2023/04/20 08:39:18;;;;;;;;;;;;;;;27.10;29.29;100891.27;104116;277;103402;-66
2023/04/20 08:45:23;;;;;;;;;;;;;;;27.06;30.56;100885.54;103860;277;92970;-60
2023/04/20 08:47:55;;;;;;;;;;;;;;;27.51;31.41;100886.86;104785;276;96769;-59
2023/04/20 08:50:27;;;;;;;;;;;;;;;27.75;29.70;100884.31;104312;277;121166;-58
2023/04/20 08:53:02;;;;;;;;;;;;;;;27.89;30.00;100885.52;104751;276;104912;-58
2023/04/20 08:55:34;;;;;;;;;;;;;;;27.92;30.53;100888.27;104314;277;113438;-55
2023/04/20 08:58:06;;;;;;;;;;;;;;;28.12;31.07;100881.36;104303;277;93792;-55
2023/04/20 09:00:47;;;;;;;;;;;;;;;28.69;30.68;100887.84;104339;277;97248;-56
2023/04/20 09:03:30;;;;;;;;;;;;;;;28.52;29.66;100882.10;104289;277;120803;-56
2023/04/20 09:06:03;;;;;;;;;;;;;;;28.32;29.24;100881.34;104768;277;105821;-58
2023/04/20 09:08:39;;;;;;;;;;;;;;;27.73;29.02;100888.77;104285;277;114914;-58
2023/04/20 09:11:22;;;;;;;;;;;;;;;27.06;29.52;100892.17;104296;277;94879;-58
2023/04/20 09:14:03;;;;;;;;;;;;;;;26.95;29.75;100887.59;104295;277;98090;-57
2023/04/20 09:16:36;;;;;;;;;;;;;;;26.30;29.92;100895.73;104747;277;120748;-57
2023/04/20 09:19:08;;;;;;;;;;;;;;;25.50;30.22;100893.21;104776;276;107590;-56
2023/04/20 09:24:56;;;;;;;;;;;;;;;24.40;30.85;100901.04;104248;276;93197;-55
2023/04/20 09:27:28;;;;;;;;;;;;;;;24.41;31.86;100898.67;104177;277;584280;-55
2023/04/20 09:30:02;;;;;;;;;;;;;;;24.11;31.95;100894.63;104112;277;120028;-58
2023/04/20 09:36:05;;;;;;;;;;;;;;;23.60;32.20;100893.67;104246;277;112642;-57
2023/04/20 09:38:37;;;;;;;;;;;;;;;23.45;32.69;100884.77;104723;277;94928;-57
2023/04/20 09:41:09;;;;;;;;;;;;;;;23.25;32.27;100899.26;104749;277;96325;-57
2023/04/20 09:43:42;;;;;;;;;;;;;;;22.65;31.41;100893.27;104274;277;120630;-57
2023/04/20 09:46:15;;;;;;;;;;;;;;;22.43;31.95;100890.55;104269;276;100007;-57
2023/04/20 09:48:53;;;;;;;;;;;;;;;22.31;32.52;100897.50;104769;280;114230;-56
2023/04/20 09:51:27;;;;;;;;;;;;;;;21.79;31.41;100895.58;104030;277;95360;-57
2023/04/20 09:54:02;;;;;;;;;;;;;;;21.31;32.20;100903.39;104068;276;96498;-56
2023/04/20 09:56:35;;;;;;;;;;;;;;;21.20;32.07;100901.98;104119;277;121671;-56
2023/04/20 09:59:07;;;;;;;;;;;;;;;21.07;32.28;100897.98;104129;277;104544;-59
2023/04/20 10:01:40;;;;;;;;;;;;;;;20.87;32.45;100889.61;104621;278;114407;-58
2023/04/20 10:04:13;;;;;;;;;;;;;;;20.78;32.78;100892.11;104097;277;93895;-58
2023/04/20 10:06:56;;;;;;;;;;;;;;;20.66;32.70;100889.03;104645;277;97803;-59
2023/04/20 10:09:30;;;;;;;;;;;;;;;20.83;33.05;100883.86;104135;277;121110;-58
2023/04/20 10:12:11;;;;;;;;;;;;;;;21.06;33.15;100882.80;104599;277;106602;-57
2023/04/20 10:14:44;;;;;;;;;;;;;;;21.27;33.17;100872.76;104106;277;114520;-55
2023/04/20 10:17:16;;;;;;;;;;;;;;;21.45;33.44;100870.21;104541;277;95337;-56
2023/04/20 10:19:49;;;;;;;;;;;;;;;21.50;32.54;100872.29;104139;277;97467;-56
2023/04/20 10:22:32;;;;;;;;;;;;;;;21.61;32.87;100868.90;104140;277;120531;-56
2023/04/20 10:25:15;;;;;;;;;;;;;;;21.75;31.68;100862.68;104142;277;104179;-57
2023/04/20 10:27:58;;;;;;;;;;;;;;;21.42;30.38;100875.61;104128;277;114349;-57
2023/04/20 10:30:32;;;;;;;;;;;;;;;21.21;30.95;100872.20;104137;278;93598;-57
2023/04/20 10:33:03;;;;;;;;;;;;;;;21.13;31.06;100868.11;104121;277;97119;-55
2023/04/20 10:35:47;;;;;;;;;;;;;;;21.23;30.72;100864.29;104085;278;119878;-55
2023/04/20 10:38:30;;;;;;;;;;;;;;;21.27;30.47;100861.39;104121;278;104106;-56
2023/04/20 10:41:09;;;;;;;;;;;;;;;21.26;31.17;100860.10;104149;278;113480;-57
2023/04/20 10:43:42;;;;;;;;;;;;;;;20.93;30.41;100867.92;104246;277;95209;-58
2023/04/20 10:46:18;;;;;;;;;;;;;;;20.41;30.81;100867.85;104756;277;97999;-55
2023/04/20 10:49:00;;;;;;;;;;;;;;;20.23;31.52;100865.75;104251;277;119197;-55
2023/04/20 10:51:32;;;;;;;;;;;;;;;20.22;31.29;100865.59;104749;278;105106;-57
2023/04/20 10:54:06;;;;;;;;;;;;;;;20.10;30.81;100866.32;104264;277;115068;-56
2023/04/20 10:56:42;;;;;;;;;;;;;;;20.21;30.90;100861.73;104300;277;93254;-55
2023/04/20 10:59:15;;;;;;;;;;;;;;;20.32;31.52;100855.33;104302;277;99061;-55
2023/04/20 11:01:49;;;;;;;;;;;;;;;20.57;31.41;100850.23;104298;277;120787;-58
2023/04/20 11:04:32;;;;;;;;;;;;;;;20.69;31.83;100850.41;104239;277;104309;-58
2023/04/20 11:07:08;;;;;;;;;;;;;;;20.98;31.57;100851.70;104184;277;113926;-55
2023/04/20 11:09:41;;;;;;;;;;;;;;;21.09;30.37;100851.45;103927;279;94498;-56
2023/04/20 11:12:14;;;;;;;;;;;;;;;21.09;29.61;100844.63;104148;277;97646;-56
2023/04/20 11:14:55;;;;;;;;;;;;;;;21.02;29.70;100846.41;104148;277;119514;-57
2023/04/20 11:17:35;;;;;;;;;;;;;;;20.76;29.97;100856.98;104186;277;105211;-58
2023/04/20 11:20:10;;;;;;;;;;;;;;;20.51;29.93;100847.66;104184;277;114037;-55
2023/04/20 11:22:44;;;;;;;;;;;;;;;20.59;30.24;100850.62;104551;277;93472;-55
2023/04/20 11:25:16;;;;;;;;;;;;;;;20.61;29.90;100846.98;104238;278;97843;-55
2023/04/20 11:27:48;;;;;;;;;;;;;;;20.73;30.47;100843.57;104201;277;121013;-55
2023/04/20 11:30:20;;;;;;;;;;;;;;;20.62;30.24;100847.22;104567;278;104502;-56
2023/04/20 11:32:56;;;;;;;;;;;;;;;20.37;29.44;100851.86;104186;278;114248;-56
2023/04/20 11:35:35;;;;;;;;;;;;;;;20.37;29.18;100845.65;104190;277;94481;-55
2023/04/20 11:38:08;;;;;;;;;;;;;;;20.48;29.55;100839.80;104182;278;95117;-57
2023/04/20 11:40:41;;;;;;;;;;;;;;;20.62;29.19;100840.69;104179;277;120086;-59
2023/04/20 11:43:13;;;;;;;;;;;;;;;20.76;29.11;100840.13;104182;277;104762;-59
2023/04/20 11:45:54;;;;;;;;;;;;;;;20.88;29.16;100833.88;104163;277;113826;-56
2023/04/20 11:48:30;;;;;;;;;;;;;;;21.01;29.35;100828.80;104509;278;93382;-56
2023/04/20 11:51:02;;;;;;;;;;;;;;;21.20;29.91;100832.19;104531;277;97386;-55
2023/04/20 11:53:34;;;;;;;;;;;;;;;21.15;29.64;100837.53;104063;278;121237;-55
2023/04/20 11:56:07;;;;;;;;;;;;;;;20.85;29.80;100838.65;104559;278;105462;-55
2023/04/20 11:58:39;;;;;;;;;;;;;;;20.65;30.49;100837.94;104110;277;115829;-56
2023/04/20 12:01:12;;;;;;;;;;;;;;;20.66;30.73;100834.29;104112;277;94893;-55
2023/04/20 12:03:44;;;;;;;;;;;;;;;20.88;31.03;100828.27;104117;278;97585;-56
2023/04/20 12:06:16;;;;;;;;;;;;;;;20.96;30.62;100828.52;104099;278;122312;-56
2023/04/20 12:08:48;;;;;;;;;;;;;;;21.09;30.91;100823.13;104546;278;106425;-56
2023/04/20 12:14:56;;;;;;;;;;;;;;;20.91;29.20;100827.89;104168;274;93101;-58
2023/04/20 12:17:28;;;;;;;;;;;;;;;20.49;28.74;100834.48;104344;276;96800;-58
2023/04/20 12:20:01;;;;;;;;;;;;;;;20.14;29.00;100840.30;104344;276;120672;-57
2023/04/20 12:22:33;;;;;;;;;;;;;;;19.96;29.14;100837.98;104341;276;103421;-58
2023/04/20 12:25:07;;;;;;;;;;;;;;;19.83;29.37;100836.30;104335;276;112662;-57
2023/04/20 12:27:39;;;;;;;;;;;;;;;19.67;29.28;100830.39;104345;276;93571;-57
2023/04/20 12:30:15;;;;;;;;;;;;;;;19.63;29.98;100831.18;104370;276;97419;-55
2023/04/20 12:32:47;;;;;;;;;;;;;;;19.81;30.09;100821.45;104381;276;120266;-55
2023/04/20 12:35:20;;;;;;;;;;;;;;;20.03;29.70;100818.44;104809;276;104564;-57
2023/04/20 12:37:52;;;;;;;;;;;;;;;20.24;29.85;100811.88;104359;276;115653;-57
2023/04/20 12:40:25;;;;;;;;;;;;;;;20.42;29.37;100800.36;104335;276;94782;-55
2023/04/20 12:42:57;;;;;;;;;;;;;;;20.51;29.31;100803.88;104384;276;96723;-55
2023/04/20 12:45:29;;;;;;;;;;;;;;;20.48;28.71;100804.06;104361;276;119999;-58
2023/04/20 12:48:02;;;;;;;;;;;;;;;20.48;28.53;100794.23;104382;276;106563;-58
2023/04/20 12:50:34;;;;;;;;;;;;;;;20.64;28.95;100796.30;104801;280;113922;-59
2023/04/20 12:53:07;;;;;;;;;;;;;;;20.78;28.67;100796.94;104405;276;94758;-59
2023/04/20 12:55:39;;;;;;;;;;;;;;;20.81;28.54;100791.89;104395;276;95629;-55
2023/04/20 12:58:15;;;;;;;;;;;;;;;20.77;27.47;100790.88;104366;276;120066;-54
2023/04/20 13:00:47;;;;;;;;;;;;;;;20.60;27.53;100789.31;104270;277;105655;-56
2023/04/20 13:03:19;;;;;;;;;;;;;;;20.45;28.12;100789.61;104775;280;115950;-56
2023/04/20 13:05:51;;;;;;;;;;;;;;;20.25;27.62;100789.90;104761;276;92562;-56
2023/04/20 13:08:23;;;;;;;;;;;;;;;20.24;27.99;100782.25;104337;276;97071;-55
2023/04/20 13:10:55;;;;;;;;;;;;;;;20.47;28.48;100779.45;104108;277;119953;-59
2023/04/20 13:13:40;;;;;;;;;;;;;;;20.61;27.40;100779.54;104292;277;105523;-59
2023/04/20 13:16:13;;;;;;;;;;;;;;;20.46;27.15;100786.02;104460;277;114371;-63
2023/04/20 13:18:45;;;;;;;;;;;;;;;20.21;28.23;100782.96;104573;277;94304;-57
2023/04/20 13:21:17;;;;;;;;;;;;;;;20.04;28.89;100788.46;104126;277;97052;-57
2023/04/20 13:23:50;;;;;;;;;;;;;;;19.89;28.70;100796.09;104564;277;120167;-59
2023/04/20 13:26:22;;;;;;;;;;;;;;;19.76;29.12;100795.52;104119;277;105945;-59
2023/04/20 13:28:56;;;;;;;;;;;;;;;19.73;29.62;100794.94;104080;277;113891;-59
2023/04/20 13:31:28;;;;;;;;;;;;;;;19.70;29.46;100800.14;104528;277;94860;-59
2023/04/20 13:34:00;;;;;;;;;;;;;;;19.66;29.18;100795.86;104588;277;97911;-56
2023/04/20 13:36:33;;;;;;;;;;;;;;;19.54;29.38;100794.45;104123;278;121221;-57
2023/04/20 13:39:05;;;;;;;;;;;;;;;19.41;29.83;100795.67;104557;277;105728;-58
2023/04/20 13:41:37;;;;;;;;;;;;;;;19.29;29.69;100793.00;104098;277;114232;-59
2023/04/20 13:44:14;;;;;;;;;;;;;;;19.16;29.87;100794.27;104093;277;94025;-56
2023/04/20 13:46:47;;;;;;;;;;;;;;;19.19;30.21;100791.17;104114;277;97222;-57
2023/04/20 13:49:21;;;;;;;;;;;;;;;19.24;29.88;100791.90;104121;277;118962;-57
2023/04/20 13:51:53;;;;;;;;;;;;;;;19.29;30.19;100793.06;104101;277;105639;-58
2023/04/20 13:57:52;;;;;;;;;;;;;;;19.52;30.87;100787.30;104134;275;92819;-58
2023/04/20 14:00:25;;;;;;;;;;;;;;;19.70;30.83;100783.31;104326;276;95268;-58
2023/04/20 14:02:57;;;;;;;;;;;;;;;19.82;31.03;100785.66;104073;278;119836;-58
2023/04/20 14:05:30;;;;;;;;;;;;;;;19.96;30.84;100783.67;104320;276;104811;-57
2023/04/20 14:08:02;;;;;;;;;;;;;;;20.03;30.75;100777.13;104089;278;113997;-57
2023/04/20 14:10:42;;;;;;;;;;;;;;;20.03;30.65;100775.77;104293;276;94352;-58
2023/04/20 14:13:14;;;;;;;;;;;;;;;20.06;30.51;100775.17;104162;276;96521;-61
2023/04/20 14:15:47;;;;;;;;;;;;;;;20.06;30.31;100770.61;104559;278;119565;-56